Time;durP1;ratioP1;P1;durP2;ratioP2;P2;SDS_P1;SDS_P2;PMS_P1;PMS_P2;Temp;Humidity;BMP_temperature;BMP_pressure;BME280_temperature;BME280_humidity;BME280_pressure;Samples;Min_cycle;Max_cycle;Signal;HPM_P1;HPM_P2
2022/01/05 00:01:32;;;;;;;8.63;5.80;;;2.90;99.90;;;;;;5056908;28;20577;-67
2022/01/05 00:03:58;;;;;;;10.23;5.50;;;2.90;99.90;;;;;;5056103;28;20202;-67
2022/01/05 00:06:23;;;;;;;13.57;6.50;;;2.90;99.90;;;;;;5056449;28;20689;-67
2022/01/05 00:08:49;;;;;;;16.37;6.53;;;2.90;99.90;;;;;;5056242;28;20233;-67
2022/01/05 00:11:15;;;;;;;11.03;5.83;;;2.90;99.90;;;;;;5056463;28;20181;-67
2022/01/05 00:13:42;;;;;;;8.53;5.83;;;2.90;99.90;;;;;;5056140;28;20244;-67
2022/01/05 00:16:08;;;;;;;14.67;6.17;;;2.90;99.90;;;;;;5054360;28;20182;-67
2022/01/05 00:18:35;;;;;;;8.47;5.90;;;2.90;99.90;;;;;;5055645;28;20179;-67
2022/01/05 00:21:03;;;;;;;9.20;5.70;;;2.80;99.90;;;;;;5055549;28;20170;-67
2022/01/05 00:23:29;;;;;;;12.67;6.23;;;2.70;99.90;;;;;;5055251;28;20248;-67
2022/01/05 00:25:55;;;;;;;9.93;5.70;;;2.70;99.90;;;;;;5055375;28;20241;-68
2022/01/05 00:28:20;;;;;;;17.00;6.17;;;2.70;99.90;;;;;;5055422;28;20194;-68
2022/01/05 00:30:46;;;;;;;9.47;5.20;;;2.60;99.90;;;;;;5055098;28;20174;-67
2022/01/05 00:33:13;;;;;;;10.47;5.60;;;2.70;99.90;;;;;;5053178;28;20203;-67
2022/01/05 00:35:38;;;;;;;10.03;5.60;;;2.60;99.90;;;;;;5055031;28;20249;-67
2022/01/05 00:38:04;;;;;;;10.10;6.23;;;2.60;99.90;;;;;;5055169;28;20256;-67
2022/01/05 00:40:30;;;;;;;6.03;5.33;;;2.60;99.90;;;;;;5055531;28;20232;-67
2022/01/05 00:42:56;;;;;;;7.20;5.77;;;2.60;99.90;;;;;;5054830;28;20209;-67
2022/01/05 00:45:21;;;;;;;11.40;5.60;;;2.50;99.90;;;;;;5055427;28;20199;-67
2022/01/05 00:47:47;;;;;;;10.90;6.13;;;2.50;99.90;;;;;;5055299;28;20570;-67
2022/01/05 00:50:13;;;;;;;7.47;5.93;;;2.50;99.90;;;;;;5054868;28;20197;-67
2022/01/05 00:52:39;;;;;;;13.13;7.70;;;2.60;99.90;;;;;;5054852;28;20214;-67
2022/01/05 00:55:05;;;;;;;14.67;7.17;;;2.60;99.90;;;;;;5053617;28;20658;-67
2022/01/05 00:57:31;;;;;;;11.87;7.07;;;2.60;99.90;;;;;;5055259;28;20491;-67
2022/01/05 00:59:56;;;;;;;18.30;7.63;;;2.50;99.90;;;;;;5054941;28;20223;-67
2022/01/05 01:02:22;;;;;;;10.00;7.10;;;2.50;99.90;;;;;;5054824;28;20205;-67
2022/01/05 01:04:48;;;;;;;13.50;7.43;;;2.50;99.90;;;;;;5055004;28;20167;-67
2022/01/05 01:07:13;;;;;;;8.87;7.27;;;2.60;99.90;;;;;;5054968;28;20170;-68
2022/01/05 01:09:40;;;;;;;10.77;7.03;;;2.60;99.90;;;;;;5054618;28;20206;-67
2022/01/05 01:12:06;;;;;;;11.23;7.83;;;2.50;99.90;;;;;;5053260;28;20183;-67
2022/01/05 01:14:32;;;;;;;9.83;7.07;;;2.50;99.90;;;;;;5054731;28;20244;-67
2022/01/05 01:16:57;;;;;;;10.87;7.77;;;2.50;99.90;;;;;;5054404;28;20212;-67
2022/01/05 01:19:23;;;;;;;10.60;7.03;;;2.40;99.90;;;;;;5054315;28;20185;-67
2022/01/05 01:21:49;;;;;;;14.83;7.67;;;2.50;99.90;;;;;;5055498;28;20185;-67
2022/01/05 01:24:15;;;;;;;12.97;7.83;;;2.50;99.90;;;;;;5054685;28;20193;-67
2022/01/05 01:26:41;;;;;;;10.00;8.10;;;2.50;99.90;;;;;;5054144;28;20568;-67
2022/01/05 01:29:07;;;;;;;13.77;9.10;;;2.50;99.90;;;;;;5052717;28;20260;-67
2022/01/05 01:31:32;;;;;;;18.60;9.33;;;2.40;99.90;;;;;;5054102;28;20179;-67
2022/01/05 01:33:58;;;;;;;20.57;10.10;;;2.40;99.90;;;;;;5052547;28;20206;-67
2022/01/05 01:36:24;;;;;;;12.17;9.23;;;2.30;99.90;;;;;;5052836;28;20202;-67
2022/01/05 01:38:50;;;;;;;17.00;9.27;;;2.30;99.90;;;;;;5054412;28;20197;-65
2022/01/05 01:41:17;;;;;;;15.83;9.70;;;2.30;99.90;;;;;;5052678;28;20640;-65
2022/01/05 01:43:43;;;;;;;13.30;9.33;;;2.20;99.90;;;;;;5053880;28;20228;-65
2022/01/05 01:46:09;;;;;;;18.13;10.83;;;2.20;99.90;;;;;;5051847;28;20313;-65
2022/01/05 01:48:35;;;;;;;16.00;11.00;;;2.30;99.90;;;;;;5053580;28;20285;-65
2022/01/05 01:51:01;;;;;;;12.30;10.13;;;2.30;99.90;;;;;;5053685;28;20171;-65
2022/01/05 01:53:27;;;;;;;12.37;9.40;;;2.20;99.90;;;;;;5053613;28;20190;-65
2022/01/05 01:55:54;;;;;;;13.07;9.87;;;2.30;99.90;;;;;;5053636;28;20182;-65
2022/01/05 01:58:22;;;;;;;14.17;9.77;;;2.20;99.90;;;;;;5052070;28;20178;-65
2022/01/05 02:00:48;;;;;;;16.13;10.57;;;2.30;99.90;;;;;;5052273;28;20591;-65
2022/01/05 02:03:14;;;;;;;18.33;10.13;;;2.30;99.90;;;;;;5053334;28;20224;-66
2022/01/05 02:05:40;;;;;;;18.43;10.60;;;2.20;99.90;;;;;;5053938;28;20182;-65
2022/01/05 02:08:06;;;;;;;15.57;11.03;;;2.20;99.90;;;;;;5054954;28;20199;-65
2022/01/05 02:10:32;;;;;;;22.43;11.43;;;2.20;99.90;;;;;;5054912;28;20534;-65
2022/01/05 02:12:58;;;;;;;14.67;11.27;;;2.20;99.90;;;;;;5054966;28;20255;-65
2022/01/05 02:15:24;;;;;;;15.27;11.60;;;2.20;99.90;;;;;;5053656;28;20620;-65
2022/01/05 02:18:08;;;;;;;20.07;12.37;;;2.20;99.90;;;;;;5053234;28;20178;-65
2022/01/05 02:20:34;;;;;;;19.10;11.97;;;2.10;99.90;;;;;;5053495;28;20246;-65
2022/01/05 02:23:00;;;;;;;20.33;12.17;;;2.20;99.90;;;;;;5053007;28;20256;-65
2022/01/05 02:25:26;;;;;;;21.17;12.60;;;2.10;99.90;;;;;;5052934;28;20179;-65
2022/01/05 02:27:54;;;;;;;21.77;13.30;;;2.10;99.90;;;;;;5053267;28;20662;-65
2022/01/05 02:30:28;;;;;;;20.40;13.10;;;2.10;99.90;;;;;;5053308;28;20628;-65
2022/01/05 02:32:54;;;;;;;23.67;13.07;;;2.00;99.90;;;;;;5052933;28;20199;-65
2022/01/05 02:35:20;;;;;;;18.10;13.17;;;2.10;99.90;;;;;;5053209;28;20177;-65
2022/01/05 02:37:52;;;;;;;21.73;14.23;;;2.10;99.90;;;;;;5051711;28;20190;-65
2022/01/05 02:40:20;;;;;;;20.67;13.47;;;2.10;99.90;;;;;;5052945;28;20171;-65
2022/01/05 02:42:46;;;;;;;31.17;15.37;;;2.10;99.90;;;;;;5052767;28;20206;-65
2022/01/05 02:45:13;;;;;;;29.03;16.40;;;2.10;99.90;;;;;;5051513;28;20190;-65
2022/01/05 02:47:39;;;;;;;24.57;15.83;;;2.10;99.90;;;;;;5052844;28;20179;-65
2022/01/05 02:50:07;;;;;;;29.77;16.00;;;2.10;99.90;;;;;;5052863;28;20236;-65
2022/01/05 02:52:33;;;;;;;27.07;16.33;;;2.10;99.90;;;;;;5052787;28;20281;-65
2022/01/05 02:54:59;;;;;;;26.13;16.10;;;2.20;99.90;;;;;;5052787;28;20197;-65
2022/01/05 02:57:25;;;;;;;39.53;17.43;;;2.20;99.90;;;;;;5055104;28;20189;-65
2022/01/05 02:59:52;;;;;;;26.67;18.03;;;2.20;99.90;;;;;;5057057;28;20182;-65
2022/01/05 03:02:18;;;;;;;34.53;18.00;;;2.30;99.90;;;;;;5057382;28;20198;-65
2022/01/05 03:04:43;;;;;;;35.30;18.77;;;2.30;99.90;;;;;;5057008;28;20178;-64
2022/01/05 03:07:09;;;;;;;31.53;18.67;;;2.30;99.90;;;;;;5057185;28;20175;-65
2022/01/05 03:09:35;;;;;;;28.63;18.83;;;2.30;99.90;;;;;;5057010;28;20210;-65
2022/01/05 03:12:01;;;;;;;39.13;19.80;;;2.30;99.90;;;;;;5056632;28;20543;-65
2022/01/05 03:14:27;;;;;;;40.60;19.90;;;2.30;99.90;;;;;;5056682;28;20542;-65
2022/01/05 03:16:53;;;;;;;35.37;20.23;;;2.30;99.90;;;;;;5056590;28;20170;-65
2022/01/05 03:19:18;;;;;;;31.27;18.20;;;2.40;99.90;;;;;;5055308;28;20646;-65
2022/01/05 03:21:44;;;;;;;33.07;19.37;;;2.40;99.90;;;;;;5056415;28;20686;-64
2022/01/05 03:24:10;;;;;;;38.67;20.80;;;2.40;99.90;;;;;;5055039;28;20582;-64
2022/01/05 03:26:36;;;;;;;33.67;18.90;;;2.40;99.90;;;;;;5056472;28;20194;-64
2022/01/05 03:29:01;;;;;;;37.73;19.30;;;2.40;99.90;;;;;;5056946;28;20282;-64
2022/01/05 03:31:27;;;;;;;33.43;19.13;;;2.50;99.90;;;;;;5056240;28;20179;-65
2022/01/05 03:33:53;;;;;;;32.63;19.77;;;2.50;99.90;;;;;;5056206;28;20205;-64
2022/01/05 03:36:18;;;;;;;32.53;19.87;;;2.50;99.90;;;;;;5056136;28;20206;-64
2022/01/05 03:38:44;;;;;;;33.40;19.47;;;2.50;99.90;;;;;;5056160;28;20596;-64
2022/01/05 03:41:10;;;;;;;40.00;20.40;;;2.50;99.90;;;;;;5056211;28;20178;-64
2022/01/05 03:43:36;;;;;;;34.67;20.10;;;2.60;99.90;;;;;;5056295;28;20213;-64
2022/01/05 03:46:01;;;;;;;41.73;20.90;;;2.50;99.90;;;;;;5054829;28;20261;-64
2022/01/05 03:48:27;;;;;;;37.70;19.70;;;2.60;99.90;;;;;;5055960;28;20255;-65
2022/01/05 03:50:53;;;;;;;34.27;19.17;;;2.50;99.90;;;;;;5054741;28;20643;-64
2022/01/05 03:53:19;;;;;;;30.37;19.57;;;2.60;99.90;;;;;;5055881;28;20689;-64
2022/01/05 03:55:46;;;;;;;37.87;19.23;;;2.50;99.90;;;;;;5054488;28;20212;-64
2022/01/05 03:58:12;;;;;;;33.00;19.90;;;2.50;99.90;;;;;;5055674;28;20178;-64
2022/01/05 04:00:41;;;;;;;33.97;18.37;;;2.50;99.90;;;;;;5054264;28;20186;-64
2022/01/05 04:03:07;;;;;;;32.93;17.93;;;2.40;99.90;;;;;;5055634;28;20221;-64
2022/01/05 04:05:33;;;;;;;38.73;18.27;;;2.40;99.90;;;;;;5055510;28;20175;-65
2022/01/05 04:07:59;;;;;;;28.53;18.27;;;2.40;99.90;;;;;;5054564;28;20679;-65
2022/01/05 04:10:25;;;;;;;32.40;19.00;;;2.40;99.90;;;;;;5054145;28;20554;-65
2022/01/05 04:12:51;;;;;;;35.33;18.33;;;2.30;99.90;;;;;;5055163;28;20558;-65
2022/01/05 04:15:17;;;;;;;27.47;18.00;;;2.30;99.90;;;;;;5055319;28;20179;-64
2022/01/05 04:17:44;;;;;;;32.97;17.03;;;2.30;99.90;;;;;;5055249;28;20245;-64
2022/01/05 04:20:12;;;;;;;40.63;19.63;;;2.30;99.90;;;;;;5055214;28;20236;-65
2022/01/05 04:22:38;;;;;;;34.63;20.10;;;2.20;99.90;;;;;;5055081;28;20193;-65
2022/01/05 04:25:04;;;;;;;55.93;21.83;;;2.20;99.90;;;;;;5055697;28;20520;-65
2022/01/05 04:27:30;;;;;;;38.23;19.30;;;2.20;99.90;;;;;;5053482;28;20191;-65
2022/01/05 04:29:56;;;;;;;32.73;17.57;;;2.20;99.90;;;;;;5054981;28;20189;-64
2022/01/05 04:32:21;;;;;;;30.27;16.77;;;2.10;99.90;;;;;;5054966;28;20203;-65
2022/01/05 04:34:47;;;;;;;26.13;14.53;;;2.10;99.90;;;;;;5055230;28;20174;-65
2022/01/05 04:37:13;;;;;;;21.00;14.27;;;2.10;99.90;;;;;;5054931;28;20182;-65
2022/01/05 04:39:39;;;;;;;26.90;14.63;;;2.10;99.90;;;;;;5054891;28;20190;-65
2022/01/05 04:42:05;;;;;;;23.50;13.30;;;2.00;99.90;;;;;;5055041;28;20313;-66
2022/01/05 04:44:31;;;;;;;21.23;13.07;;;2.00;99.90;;;;;;5054824;28;20189;-65
2022/01/05 04:46:57;;;;;;;25.43;13.37;;;2.00;99.90;;;;;;5053520;28;20701;-65
2022/01/05 04:49:22;;;;;;;26.50;12.67;;;2.00;99.90;;;;;;5053317;28;20292;-65
2022/01/05 04:51:48;;;;;;;21.30;11.73;;;2.00;99.90;;;;;;5054611;28;20564;-64
2022/01/05 04:54:15;;;;;;;19.70;12.67;;;2.00;99.90;;;;;;5053365;28;20214;-65
2022/01/05 04:56:40;;;;;;;19.37;11.80;;;2.00;99.90;;;;;;5053256;28;20588;-65
2022/01/05 04:59:06;;;;;;;15.70;10.53;;;1.90;99.90;;;;;;5054484;28;20236;-64
2022/01/05 05:01:32;;;;;;;14.37;9.70;;;1.90;99.90;;;;;;5055019;28;20258;-64
2022/01/05 05:03:58;;;;;;;18.33;9.20;;;1.90;99.90;;;;;;5054470;28;20260;-64
2022/01/05 05:06:24;;;;;;;16.30;9.07;;;1.80;99.90;;;;;;5054867;28;20586;-64
2022/01/05 05:08:50;;;;;;;16.77;8.87;;;1.80;99.90;;;;;;5054778;28;20263;-65
2022/01/05 05:11:16;;;;;;;16.03;8.87;;;1.80;99.90;;;;;;5052963;28;20643;-65
2022/01/05 05:13:42;;;;;;;17.13;9.03;;;1.80;99.90;;;;;;5054253;28;20194;-64
2022/01/05 05:16:07;;;;;;;16.53;8.60;;;1.70;99.90;;;;;;5054176;28;20178;-64
2022/01/05 05:18:33;;;;;;;16.13;9.20;;;1.70;99.90;;;;;;5053952;28;20247;-64
2022/01/05 05:20:59;;;;;;;13.20;8.80;;;1.60;99.90;;;;;;5054439;28;20542;-66
2022/01/05 05:23:25;;;;;;;16.70;9.27;;;1.70;99.90;;;;;;5052686;28;20301;-63
2022/01/05 05:25:51;;;;;;;14.97;9.20;;;1.60;99.90;;;;;;5054019;28;20277;-64
2022/01/05 05:28:17;;;;;;;14.20;8.30;;;1.60;99.90;;;;;;5053895;28;20263;-64
2022/01/05 05:30:43;;;;;;;13.43;8.03;;;1.60;99.90;;;;;;5053915;28;20182;-64
2022/01/05 05:33:09;;;;;;;16.43;8.80;;;1.60;99.90;;;;;;5052981;28;20570;-64
2022/01/05 05:35:34;;;;;;;12.20;7.60;;;1.60;99.90;;;;;;5054391;28;20170;-64
2022/01/05 05:38:00;;;;;;;19.03;8.23;;;1.60;99.90;;;;;;5054318;28;20171;-64
2022/01/05 05:40:26;;;;;;;11.47;8.47;;;1.50;99.90;;;;;;5052994;28;20202;-64
2022/01/05 05:42:52;;;;;;;12.00;7.77;;;1.50;99.90;;;;;;5054106;28;20198;-64
2022/01/05 05:45:18;;;;;;;18.33;8.23;;;1.50;99.90;;;;;;5054173;28;20179;-64
2022/01/05 05:47:44;;;;;;;16.33;8.77;;;1.50;99.90;;;;;;5054577;28;20163;-64
2022/01/05 05:50:10;;;;;;;15.20;8.03;;;1.50;99.90;;;;;;5054086;28;20190;-64
2022/01/05 05:52:36;;;;;;;15.57;8.03;;;1.50;99.90;;;;;;5053972;28;20276;-64
2022/01/05 05:55:03;;;;;;;17.53;7.47;;;1.40;99.90;;;;;;5053931;28;20210;-64
2022/01/05 05:57:29;;;;;;;15.40;7.47;;;1.50;99.90;;;;;;5054179;28;20655;-64
2022/01/05 05:59:54;;;;;;;20.27;8.77;;;1.50;99.90;;;;;;5053885;28;20259;-64
2022/01/05 06:02:20;;;;;;;15.27;8.17;;;1.40;99.90;;;;;;5053855;28;20208;-64
2022/01/05 06:04:46;;;;;;;15.50;7.73;;;1.40;99.90;;;;;;5053795;28;20174;-64
2022/01/05 06:07:12;;;;;;;14.60;8.20;;;1.40;99.90;;;;;;5053728;28;20608;-64
2022/01/05 06:09:37;;;;;;;11.47;7.43;;;1.40;99.90;;;;;;5052408;28;20212;-64
2022/01/05 06:12:04;;;;;;;14.27;8.03;;;1.40;99.90;;;;;;5052401;28;20185;-64
2022/01/05 06:14:29;;;;;;;12.03;7.33;;;1.40;99.90;;;;;;5053976;28;20257;-64
2022/01/05 06:16:55;;;;;;;18.07;8.10;;;1.40;99.90;;;;;;5053732;28;20607;-64
2022/01/05 06:19:21;;;;;;;15.97;7.40;;;1.40;99.90;;;;;;5052319;28;20265;-64
2022/01/05 06:21:47;;;;;;;14.53;7.70;;;1.30;99.90;;;;;;5053608;28;20178;-63
2022/01/05 06:24:13;;;;;;;19.47;7.83;;;1.40;99.90;;;;;;5053445;28;20194;-63
2022/01/05 06:26:39;;;;;;;12.37;7.37;;;1.30;99.90;;;;;;5052112;28;20634;-64
2022/01/05 06:29:05;;;;;;;17.17;8.33;;;1.30;99.90;;;;;;5053362;28;20254;-63
2022/01/05 06:31:31;;;;;;;16.43;7.40;;;1.40;99.90;;;;;;5053140;28;20182;-64
2022/01/05 06:33:57;;;;;;;11.63;7.37;;;1.40;99.90;;;;;;5052123;28;20221;-64
2022/01/05 06:36:22;;;;;;;15.60;8.57;;;1.40;99.90;;;;;;5052124;28;20181;-64
2022/01/05 06:38:48;;;;;;;12.43;8.20;;;1.40;99.90;;;;;;5052084;28;20686;-63
2022/01/05 06:41:14;;;;;;;13.00;8.77;;;1.40;99.90;;;;;;5053416;28;20261;-64
2022/01/05 06:43:40;;;;;;;14.07;9.13;;;1.40;99.90;;;;;;5052019;28;20202;-63
2022/01/05 06:46:05;;;;;;;12.77;8.33;;;1.40;99.90;;;;;;5052000;28;20178;-63
2022/01/05 06:48:31;;;;;;;17.33;8.50;;;1.40;99.90;;;;;;5053196;28;20198;-64
2022/01/05 06:50:57;;;;;;;14.50;7.43;;;1.40;99.90;;;;;;5053247;28;20174;-64
2022/01/05 06:53:23;;;;;;;14.37;7.93;;;1.40;99.90;;;;;;5053191;28;20274;-64
2022/01/05 06:55:48;;;;;;;18.63;8.57;;;1.40;99.90;;;;;;5053139;28;20171;-64
2022/01/05 06:58:14;;;;;;;19.07;8.57;;;1.40;99.90;;;;;;5053216;28;20174;-64
2022/01/05 07:00:40;;;;;;;23.20;8.53;;;1.40;99.90;;;;;;5051952;28;20186;-64
2022/01/05 07:03:05;;;;;;;16.63;8.80;;;1.50;99.90;;;;;;5051832;28;20202;-64
2022/01/05 07:05:32;;;;;;;18.83;8.30;;;1.50;99.90;;;;;;5051769;28;20613;-64
2022/01/05 07:07:58;;;;;;;19.30;8.03;;;1.50;99.90;;;;;;5052996;28;20653;-64
2022/01/05 07:10:24;;;;;;;12.67;8.40;;;1.60;99.90;;;;;;5053039;28;20170;-64
2022/01/05 07:12:50;;;;;;;18.00;8.47;;;1.70;99.90;;;;;;5051655;28;20194;-64
2022/01/05 07:15:16;;;;;;;10.13;7.73;;;1.70;99.90;;;;;;5053041;28;20182;-64
2022/01/05 07:17:42;;;;;;;11.40;8.67;;;1.80;99.90;;;;;;5052740;28;20260;-64
2022/01/05 07:20:09;;;;;;;18.77;8.73;;;1.80;99.90;;;;;;5061459;28;20178;-64
2022/01/05 07:22:35;;;;;;;13.03;8.20;;;1.80;99.90;;;;;;5053163;28;20194;-64
2022/01/05 07:25:01;;;;;;;18.70;8.47;;;1.80;99.90;;;;;;5051941;28;20189;-64
2022/01/05 07:27:27;;;;;;;19.67;8.83;;;1.80;99.90;;;;;;5052807;28;20257;-64
2022/01/05 07:29:52;;;;;;;16.57;8.90;;;1.80;99.90;;;;;;5052447;28;20218;-64
2022/01/05 07:32:18;;;;;;;19.97;9.10;;;1.90;99.90;;;;;;5051660;28;20699;-64
2022/01/05 07:34:44;;;;;;;13.23;8.10;;;1.90;99.90;;;;;;5052743;28;20178;-65
2022/01/05 07:37:10;;;;;;;13.83;9.20;;;1.90;99.90;;;;;;5053078;28;20178;-64
2022/01/05 07:39:36;;;;;;;16.70;9.20;;;1.90;99.90;;;;;;5051477;28;20681;-65
2022/01/05 07:42:03;;;;;;;19.27;9.20;;;2.00;99.90;;;;;;5052805;28;20610;-64
2022/01/05 07:44:29;;;;;;;18.70;10.13;;;1.90;99.90;;;;;;5056724;28;20180;-64
2022/01/05 07:46:55;;;;;;;23.10;10.30;;;1.90;99.90;;;;;;5056509;28;20257;-64
2022/01/05 07:49:20;;;;;;;15.87;9.73;;;1.90;99.90;;;;;;5056388;28;20708;-64
2022/01/05 07:51:46;;;;;;;15.77;9.10;;;2.00;99.90;;;;;;5056410;28;20281;-64
2022/01/05 07:54:12;;;;;;;19.80;9.63;;;2.00;99.90;;;;;;5056277;28;20557;-64
2022/01/05 07:56:37;;;;;;;18.33;9.70;;;2.00;99.90;;;;;;5056665;28;20170;-64
2022/01/05 07:59:04;;;;;;;16.93;9.70;;;2.00;99.90;;;;;;5055429;28;20277;-64
2022/01/05 08:01:30;;;;;;;20.13;9.90;;;2.00;99.90;;;;;;5056541;28;20228;-64
2022/01/05 08:03:56;;;;;;;15.13;9.00;;;2.00;99.90;;;;;;5056245;28;20273;-64
2022/01/05 08:06:22;;;;;;;16.30;9.67;;;2.00;99.90;;;;;;5054757;28;20213;-64
2022/01/05 08:08:49;;;;;;;12.87;9.80;;;2.10;99.90;;;;;;5056106;28;20664;-64
2022/01/05 08:11:15;;;;;;;12.57;9.40;;;2.00;99.90;;;;;;5054734;28;20296;-64
2022/01/05 08:13:41;;;;;;;19.47;10.27;;;2.10;99.90;;;;;;5054626;28;20194;-64
2022/01/05 08:16:08;;;;;;;17.87;9.47;;;2.10;99.90;;;;;;5054620;28;20178;-64
2022/01/05 08:18:34;;;;;;;13.73;9.50;;;2.10;99.90;;;;;;5056168;28;20174;-64
2022/01/05 08:21:00;;;;;;;13.23;9.40;;;2.10;99.90;;;;;;5056104;28;20162;-64
2022/01/05 08:23:26;;;;;;;20.73;9.77;;;2.10;99.90;;;;;;5055737;28;20201;-64
2022/01/05 08:25:52;;;;;;;19.60;11.60;;;2.10;99.90;;;;;;5055634;28;20186;-64
2022/01/05 08:28:19;;;;;;;12.67;8.53;;;2.20;99.90;;;;;;5055545;28;20536;-64
2022/01/05 08:30:45;;;;;;;16.70;9.40;;;2.20;99.90;;;;;;5055902;28;20179;-64
2022/01/05 08:33:13;;;;;;;21.13;10.70;;;2.20;99.90;;;;;;5055606;28;20225;-64
2022/01/05 08:35:38;;;;;;;16.37;10.30;;;2.30;99.90;;;;;;5055938;28;20166;-68
2022/01/05 08:38:04;;;;;;;13.23;8.40;;;2.30;99.90;;;;;;5055573;28;20249;-69
2022/01/05 08:40:32;;;;;;;18.37;9.57;;;2.40;99.90;;;;;;5055421;28;20202;-64
2022/01/05 08:42:58;;;;;;;12.17;9.37;;;2.40;99.90;;;;;;5055907;28;20186;-64
2022/01/05 08:45:25;;;;;;;14.50;8.80;;;2.40;99.90;;;;;;5054399;28;20217;-64
2022/01/05 08:47:52;;;;;;;18.97;9.07;;;2.50;99.90;;;;;;5055673;28;20202;-64
2022/01/05 08:50:23;;;;;;;14.93;9.37;;;2.50;99.90;;;;;;5055978;28;20170;-64
2022/01/05 08:52:50;;;;;;;14.93;8.73;;;2.60;99.90;;;;;;5055276;28;20197;-64
2022/01/05 08:55:18;;;;;;;17.30;9.47;;;2.60;99.90;;;;;;5054938;28;20182;-64
2022/01/05 08:57:44;;;;;;;17.07;8.50;;;2.70;99.90;;;;;;5053795;28;20178;-64
2022/01/05 09:00:11;;;;;;;19.10;10.07;;;2.70;99.90;;;;;;5055121;28;20189;-64
2022/01/05 09:02:37;;;;;;;15.87;8.83;;;2.70;99.90;;;;;;5054853;28;20198;-64
2022/01/05 09:05:05;;;;;;;13.40;9.17;;;2.70;99.90;;;;;;5055402;28;20253;-64
2022/01/05 09:07:31;;;;;;;14.53;8.70;;;2.70;99.90;;;;;;5054181;28;20171;-63
2022/01/05 09:09:57;;;;;;;14.07;8.77;;;2.80;99.90;;;;;;5055367;28;20208;-63
2022/01/05 09:12:23;;;;;;;12.43;9.50;;;2.70;99.90;;;;;;5055038;28;20536;-63
2022/01/05 09:14:49;;;;;;;14.43;8.90;;;2.80;99.90;;;;;;5055479;28;20174;-64
2022/01/05 09:17:15;;;;;;;18.30;9.10;;;2.80;99.90;;;;;;5053477;28;20643;-64
2022/01/05 09:19:42;;;;;;;13.93;8.73;;;2.80;99.90;;;;;;5054715;28;20257;-64
2022/01/05 09:22:08;;;;;;;16.13;9.17;;;2.80;99.90;;;;;;5054796;28;20194;-64
2022/01/05 09:24:36;;;;;;;18.90;9.33;;;2.90;99.90;;;;;;5053358;28;20178;-64
2022/01/05 09:27:04;;;;;;;17.43;9.20;;;2.90;99.90;;;;;;5054688;28;20186;-64
2022/01/05 09:29:31;;;;;;;15.17;8.53;;;2.90;99.90;;;;;;5054408;28;20221;-64
2022/01/05 09:32:02;;;;;;;15.47;8.90;;;2.90;99.90;;;;;;5054501;28;20173;-65
2022/01/05 09:34:29;;;;;;;16.17;8.60;;;2.90;99.90;;;;;;5054368;28;20155;-64
2022/01/05 09:36:59;;;;;;;17.97;8.80;;;2.90;99.90;;;;;;5054347;28;20170;-64
2022/01/05 09:42:09;;;;;;;31.70;10.57;;;2.90;99.90;;;;;;5054727;28;20272;-64
2022/01/05 09:44:41;;;;;;;16.50;9.87;;;2.90;99.90;;;;;;5053091;28;20214;-64
2022/01/05 09:47:26;;;;;;;15.23;9.20;;;2.90;99.90;;;;;;5054865;28;20178;-64
2022/01/05 09:49:53;;;;;;;19.63;10.37;;;2.90;99.90;;;;;;5054488;28;20182;-64
2022/01/05 09:52:21;;;;;;;17.87;9.57;;;2.90;99.90;;;;;;5052708;28;20201;-64
2022/01/05 09:54:48;;;;;;;16.80;10.27;;;2.90;99.90;;;;;;5053981;28;20242;-64
2022/01/05 09:57:15;;;;;;;14.03;8.97;;;2.90;99.90;;;;;;5053965;28;20174;-64
2022/01/05 09:59:41;;;;;;;16.60;10.70;;;2.90;99.90;;;;;;5053987;28;20212;-64
2022/01/05 10:02:08;;;;;;;20.07;10.80;;;2.90;99.90;;;;;;5053818;28;20174;-65
2022/01/05 10:04:37;;;;;;;20.27;10.80;;;3.00;99.90;;;;;;5052573;28;20233;-65
2022/01/05 10:07:04;;;;;;;17.80;11.43;;;3.00;99.90;;;;;;5053188;28;20166;-65
2022/01/05 10:09:30;;;;;;;21.60;10.47;;;3.00;99.90;;;;;;5053931;28;20288;-65
2022/01/05 10:11:55;;;;;;;19.87;11.37;;;3.00;99.90;;;;;;5052457;28;20175;-65
2022/01/05 10:14:21;;;;;;;19.97;11.20;;;3.10;99.90;;;;;;5053738;28;20708;-65
2022/01/05 10:17:04;;;;;;;16.27;10.60;;;3.10;99.90;;;;;;5052437;28;20174;-65
2022/01/05 10:19:31;;;;;;;13.23;10.27;;;3.10;99.90;;;;;;5053900;28;20623;-65
2022/01/05 10:21:57;;;;;;;16.10;11.07;;;3.10;99.90;;;;;;5053555;28;20265;-65
2022/01/05 10:24:46;;;;;;;24.47;10.93;;;3.00;99.90;;;;;;5053549;28;20157;-64
2022/01/05 10:27:16;;;;;;;14.47;11.10;;;3.00;99.90;;;;;;5053348;28;20217;-65
2022/01/05 10:29:59;;;;;;;14.00;10.47;;;2.90;99.90;;;;;;5053382;28;20681;-65
2022/01/05 10:32:29;;;;;;;18.00;11.53;;;2.90;99.90;;;;;;5053628;28;20281;-65
2022/01/05 10:35:00;;;;;;;15.83;10.37;;;2.80;99.90;;;;;;5053932;28;20162;-64
2022/01/05 10:37:26;;;;;;;19.50;11.00;;;2.80;99.90;;;;;;5053601;28;20182;-65
2022/01/05 10:40:06;;;;;;;24.90;10.77;;;2.80;99.90;;;;;;5052480;28;20174;-64
2022/01/05 10:42:33;;;;;;;15.60;9.77;;;2.70;99.90;;;;;;5053836;28;20557;-65
2022/01/05 10:44:59;;;;;;;20.63;11.17;;;2.70;99.90;;;;;;5053373;28;20177;-65
2022/01/05 10:47:25;;;;;;;14.13;11.17;;;2.60;99.90;;;;;;5053564;28;20178;-64
2022/01/05 10:49:51;;;;;;;21.63;11.30;;;2.50;99.90;;;;;;5053573;28;20663;-65
2022/01/05 10:52:34;;;;;;;25.87;11.47;;;2.50;99.90;;;;;;5053592;28;20190;-64
2022/01/05 10:55:13;;;;;;;20.63;10.73;;;2.50;99.90;;;;;;5053652;28;20641;-64
2022/01/05 10:57:54;;;;;;;18.20;11.40;;;2.50;99.90;;;;;;5051862;28;20174;-65
2022/01/05 11:00:41;;;;;;;23.30;10.97;;;2.50;99.90;;;;;;5053198;28;20166;-65
2022/01/05 11:03:35;;;;;;;20.40;11.27;;;2.50;99.90;;;;;;5051689;28;20198;-65
2022/01/05 11:06:16;;;;;;;15.97;10.73;;;2.60;99.90;;;;;;5053558;28;20292;-65
2022/01/05 11:08:55;;;;;;;16.03;10.20;;;2.60;99.90;;;;;;5051753;28;20198;-65
2022/01/05 11:11:32;;;;;;;18.87;10.07;;;2.70;99.90;;;;;;5051774;28;20265;-65
2022/01/05 11:13:58;;;;;;;21.50;10.63;;;2.70;99.90;;;;;;5053002;28;20195;-64
2022/01/05 11:16:29;;;;;;;17.67;10.50;;;2.70;99.90;;;;;;5051846;28;20269;-65
2022/01/05 11:19:23;;;;;;;18.00;10.53;;;2.70;99.90;;;;;;5057336;28;20585;-64
2022/01/05 11:22:14;;;;;;;16.50;10.00;;;2.70;99.90;;;;;;5056958;28;20159;-65
2022/01/05 11:24:47;;;;;;;17.23;9.90;;;2.70;99.90;;;;;;5057232;28;20236;-65
2022/01/05 11:27:24;;;;;;;10.90;9.63;;;2.70;99.90;;;;;;5056984;28;20542;-65
2022/01/05 11:29:50;;;;;;;17.07;10.90;;;2.70;99.90;;;;;;5055492;28;20247;-64
2022/01/05 11:32:25;;;;;;;11.57;9.77;;;2.70;99.90;;;;;;5056637;28;20697;-64
2022/01/05 11:34:51;;;;;;;16.57;10.80;;;2.70;99.90;;;;;;5055382;28;20220;-64
2022/01/05 11:37:18;;;;;;;11.60;10.40;;;2.70;99.90;;;;;;5056879;28;20167;-63
2022/01/05 11:39:47;;;;;;;16.73;10.03;;;2.60;99.90;;;;;;5056893;28;20223;-64
2022/01/05 11:42:18;;;;;;;13.07;10.10;;;2.60;99.90;;;;;;5056588;28;20285;-63
2022/01/05 11:44:49;;;;;;;17.40;10.13;;;2.50;99.90;;;;;;5056783;28;20496;-64
2022/01/05 11:47:23;;;;;;;15.43;9.67;;;2.40;99.90;;;;;;5056909;28;20155;-64
2022/01/05 11:49:50;;;;;;;13.53;9.30;;;2.40;99.90;;;;;;5056731;28;20555;-65
2022/01/05 11:52:16;;;;;;;18.53;9.40;;;2.40;99.90;;;;;;5056297;28;20190;-64
2022/01/05 11:55:04;;;;;;;19.43;10.10;;;2.40;99.90;;;;;;5056326;28;20170;-64
2022/01/05 11:57:30;;;;;;;12.87;9.57;;;2.30;99.90;;;;;;5056732;28;20159;-64
2022/01/05 12:00:16;;;;;;;17.53;9.43;;;2.40;99.90;;;;;;5056851;28;20639;-64
2022/01/05 12:02:42;;;;;;;14.83;9.40;;;2.40;99.90;;;;;;5056464;28;20277;-64
2022/01/05 12:05:08;;;;;;;18.37;10.47;;;2.40;99.90;;;;;;5056169;28;20708;-64
2022/01/05 12:07:34;;;;;;;12.57;10.00;;;2.50;99.90;;;;;;5056074;28;20179;-64
2022/01/05 12:10:00;;;;;;;19.03;10.33;;;2.50;99.90;;;;;;5055960;28;20666;-65
2022/01/05 12:12:30;;;;;;;13.03;9.67;;;2.50;99.90;;;;;;5054627;28;20694;-64
2022/01/05 12:14:56;;;;;;;15.33;10.13;;;2.50;99.90;;;;;;5056793;28;20191;-66
2022/01/05 12:17:23;;;;;;;14.77;10.30;;;2.50;99.90;;;;;;5055886;28;20174;-66
2022/01/05 12:19:48;;;;;;;15.23;10.17;;;2.50;99.90;;;;;;5055858;28;20225;-66
2022/01/05 12:22:15;;;;;;;14.43;10.17;;;2.50;99.90;;;;;;5055734;28;20198;-66
2022/01/05 12:24:53;;;;;;;14.47;10.40;;;2.50;99.90;;;;;;5055998;28;20179;-67
2022/01/05 12:27:25;;;;;;;20.53;10.53;;;2.50;99.90;;;;;;5055703;28;20277;-67
2022/01/05 12:29:52;;;;;;;12.73;10.07;;;2.50;99.90;;;;;;5053365;28;20733;-67
2022/01/05 12:32:32;;;;;;;20.10;11.77;;;2.50;99.90;;;;;;5055560;28;20192;-67
2022/01/05 12:35:05;;;;;;;17.00;10.17;;;2.50;99.90;;;;;;5056075;28;20506;-67
2022/01/05 12:37:40;;;;;;;17.17;10.90;;;2.60;99.90;;;;;;5054406;28;20174;-67
2022/01/05 12:40:38;;;;;;;18.07;10.07;;;2.60;99.90;;;;;;5055512;28;20170;-67
2022/01/05 12:43:10;;;;;;;18.13;11.33;;;2.60;99.90;;;;;;5054144;28;20202;-68
2022/01/05 12:45:55;;;;;;;16.43;11.97;;;2.70;99.90;;;;;;5055458;28;20191;-67
2022/01/05 12:48:33;;;;;;;15.60;10.57;;;2.70;99.90;;;;;;5054101;28;20571;-67